Time;durP1;ratioP1;P1;durP2;ratioP2;P2;SDS_P1;SDS_P2;PMS_P1;PMS_P2;Temp;Humidity;BMP_temperature;BMP_pressure;BME280_temperature;BME280_humidity;BME280_pressure;Samples;Min_cycle;Max_cycle;Signal;HPM_P1;HPM_P2
2022/06/29 00:00:23;;;;;;;9.98;7.78;;;512.90;2380.80;;;;;;5096452;28;20126;-85
2022/06/29 00:02:49;;;;;;;11.30;7.43;;;537.60;2406.40;;;;;;5096435;28;20020;-86
2022/06/29 00:05:21;;;;;;;9.30;8.27;;;537.70;2406.40;;;;;;5096543;28;20024;-85
2022/06/29 00:07:47;;;;;;;12.73;8.13;;;537.60;2406.40;;;;;;5096775;28;20032;-85
2022/06/29 00:10:14;;;;;;;11.80;7.80;;;537.60;2406.40;;;;;;5096246;28;20031;-86
2022/06/29 00:12:42;;;;;;;10.45;8.05;;;512.90;2380.80;;;;;;5096921;28;20027;-87
2022/06/29 00:15:09;;;;;;;10.43;7.55;;;512.90;2380.80;;;;;;5096964;28;20161;-87
2022/06/29 00:17:35;;;;;;;11.70;7.88;;;537.60;2406.40;;;;;;5096263;28;20026;-86
2022/06/29 00:20:02;;;;;;;13.70;7.80;;;512.90;2380.80;;;;;;5096571;28;20111;-86
2022/06/29 00:22:28;;;;;;;12.13;7.53;;;512.90;2380.80;;;;;;5096367;28;20383;-86
2022/06/29 00:24:55;;;;;;;11.40;7.03;;;512.90;2380.80;;;;;;5096648;28;20028;-86
2022/06/29 00:27:22;;;;;;;14.55;7.40;;;512.70;2380.80;;;;;;5096677;28;20061;-86
2022/06/29 00:29:48;;;;;;;11.35;7.35;;;512.50;2380.80;;;;;;5096610;28;20020;-86
2022/06/29 00:32:14;;;;;;;8.95;8.00;;;512.20;2380.80;;;;;;5096513;28;20357;-86
2022/06/29 00:34:40;;;;;;;11.05;7.43;;;512.40;2380.80;;;;;;5096586;28;20031;-86
2022/06/29 00:37:06;;;;;;;12.55;8.18;;;512.20;2380.80;;;;;;5096754;28;20035;-84
2022/06/29 00:39:33;;;;;;;11.63;6.85;;;512.10;2380.80;;;;;;5096541;28;20466;-86
2022/06/29 00:41:59;;;;;;;10.07;7.47;;;512.50;2380.80;;;;;;5096374;28;20028;-87
2022/06/29 00:44:25;;;;;;;10.90;7.53;;;512.50;2380.80;;;;;;5096507;28;20024;-86
2022/06/29 00:46:54;;;;;;;14.30;7.63;;;512.50;2380.80;;;;;;5096357;28;20024;-86
2022/06/29 00:49:22;;;;;;;14.25;8.30;;;512.60;2380.80;;;;;;5096273;28;20459;-87
2022/06/29 00:51:50;;;;;;;8.77;7.78;;;512.60;2380.80;;;;;;5096287;28;20059;-87
2022/06/29 00:54:19;;;;;;;14.25;9.00;;;512.60;2380.80;;;;;;5096614;28;20107;-86
2022/06/29 00:56:45;;;;;;;13.05;7.75;;;512.40;2380.80;;;;;;5096243;28;20043;-85
2022/06/29 00:59:23;;;;;;;11.50;7.70;;;512.60;2380.80;;;;;;5095619;28;20056;-86
2022/06/29 01:01:49;;;;;;;11.43;7.65;;;512.30;2380.80;;;;;;5095990;28;20040;-85
2022/06/29 01:04:15;;;;;;;10.88;7.30;;;512.40;2380.80;;;;;;5095716;28;20098;-86
2022/06/29 01:06:41;;;;;;;10.35;7.28;;;512.40;2380.80;;;;;;5095571;28;20046;-86
2022/06/29 01:09:07;;;;;;;12.93;7.43;;;512.50;2380.80;;;;;;5095890;28;20020;-86
2022/06/29 01:11:34;;;;;;;10.73;7.75;;;512.60;2380.80;;;;;;5095447;28;20078;-86
2022/06/29 01:14:00;;;;;;;8.82;7.15;;;512.60;2380.80;;;;;;5095522;28;20024;-85
2022/06/29 01:16:26;;;;;;;9.32;7.10;;;512.50;2380.80;;;;;;5095479;28;20414;-85
2022/06/29 01:18:52;;;;;;;14.50;6.88;;;512.20;2380.80;;;;;;5095868;28;20103;-87
2022/06/29 01:21:22;;;;;;;12.27;7.32;;;512.20;2380.80;;;;;;5095658;28;20032;-87
2022/06/29 01:23:48;;;;;;;9.48;6.93;;;512.20;2380.80;;;;;;5095421;28;20051;-85
2022/06/29 01:26:15;;;;;;;17.75;6.80;;;512.40;2380.80;;;;;;5095048;28;20085;-83
2022/06/29 01:28:44;;;;;;;9.73;7.53;;;487.30;2380.80;;;;;;5095354;28;20025;-85
2022/06/29 01:31:17;;;;;;;9.43;7.65;;;512.20;2380.80;;;;;;5095275;28;20081;-85
2022/06/29 01:33:43;;;;;;;;;;;512.20;2380.80;;;;;;5095619;28;20038;-85
2022/06/29 01:36:09;;;;;;;10.07;7.68;;;512.00;2380.80;;;;;;5094074;28;20351;-85
2022/06/29 01:38:36;;;;;;;8.73;7.47;;;487.30;2380.80;;;;;;5094544;28;20115;-85
2022/06/29 01:41:04;;;;;;;8.00;7.10;;;487.20;2380.80;;;;;;5094625;28;20042;-85
2022/06/29 01:43:31;;;;;;;8.20;6.90;;;487.10;2380.80;;;;;;5094608;28;20460;-86
2022/06/29 01:45:57;;;;;;;8.18;6.68;;;487.10;2380.80;;;;;;5094334;28;20032;-86
2022/06/29 01:48:23;;;;;;;10.60;7.57;;;487.20;2380.80;;;;;;5094962;28;20031;-85
2022/06/29 01:50:49;;;;;;;12.35;7.75;;;487.10;2380.80;;;;;;5094579;28;20408;-85
2022/06/29 01:53:15;;;;;;;10.77;7.80;;;487.00;2380.80;;;;;;5094333;28;20471;-85
2022/06/29 01:55:44;;;;;;;9.40;6.78;;;486.80;2380.80;;;;;;5094636;28;20459;-86
2022/06/29 01:58:10;;;;;;;10.10;7.43;;;487.00;2380.80;;;;;;5094430;28;20024;-85
2022/06/29 02:00:36;;;;;;;11.68;7.63;;;;;;;;;;5094567;28;20024;-85
2022/06/29 02:03:02;;;;;;;12.70;7.82;;;486.80;2380.80;;;;;;5094326;28;20566;-86
2022/06/29 02:05:27;;;;;;;11.45;7.65;;;486.80;2380.80;;;;;;5094425;28;20031;-85
2022/06/29 02:07:53;;;;;;;9.55;7.68;;;487.00;2380.80;;;;;;5094637;28;20035;-86
2022/06/29 02:10:19;;;;;;;8.80;7.82;;;487.00;2380.80;;;;;;5105126;28;20050;-85
2022/06/29 02:12:45;;;;;;;10.85;8.00;;;486.80;2380.80;;;;;;5115742;28;20028;-85
2022/06/29 02:15:11;;;;;;;12.10;7.72;;;486.50;2380.80;;;;;;5097776;28;20024;-86
2022/06/29 02:17:37;;;;;;;10.65;7.53;;;486.60;2380.80;;;;;;5094223;28;20073;-85
2022/06/29 02:20:04;;;;;;;10.13;7.57;;;487.00;2380.80;;;;;;5093841;28;20024;-85
2022/06/29 02:22:29;;;;;;;10.77;7.43;;;487.00;2380.80;;;;;;5094053;28;20486;-85
2022/06/29 02:24:55;;;;;;;12.90;7.93;;;487.10;2380.80;;;;;;5094045;28;20066;-86
2022/06/29 02:27:21;;;;;;;9.80;7.45;;;487.20;2380.80;;;;;;5093920;28;20115;-86
2022/06/29 02:29:47;;;;;;;11.65;6.93;;;487.30;2380.80;;;;;;5094004;28;20028;-85
2022/06/29 02:34:57;;;;;;;11.00;7.55;;;486.80;2380.80;;;;;;5095293;28;20565;-86
2022/06/29 02:37:23;;;;;;;10.73;7.72;;;486.90;2380.80;;;;;;5094162;28;20032;-85
2022/06/29 02:39:49;;;;;;;13.98;8.15;;;486.90;2380.80;;;;;;5093838;28;20028;-86
2022/06/29 02:42:15;;;;;;;11.52;7.38;;;486.80;2380.80;;;;;;5093678;28;20387;-86
2022/06/29 02:44:42;;;;;;;10.63;7.05;;;486.80;2380.80;;;;;;5093631;28;20383;-86
2022/06/29 02:47:09;;;;;;;9.45;7.35;;;486.70;2380.80;;;;;;5093578;28;20024;-86
2022/06/29 02:49:35;;;;;;;11.98;7.40;;;486.50;2380.80;;;;;;5093722;28;20038;-85
2022/06/29 02:52:02;;;;;;;10.52;6.53;;;486.70;2380.80;;;;;;5093499;28;20052;-85
2022/06/29 02:54:28;;;;;;;8.82;7.05;;;486.80;2380.80;;;;;;5093921;28;20470;-85
2022/06/29 02:56:54;;;;;;;12.38;6.60;;;486.90;2380.80;;;;;;5093937;28;20024;-85
2022/06/29 02:59:21;;;;;;;13.05;6.78;;;487.00;2380.80;;;;;;5093686;28;20035;-85
2022/06/29 03:01:47;;;;;;;12.35;7.95;;;487.10;2380.80;;;;;;5094164;28;20051;-85
2022/06/29 03:04:13;;;;;;;11.27;7.13;;;487.20;2380.80;;;;;;5094383;28;20024;-85
2022/06/29 03:06:39;;;;;;;11.15;7.07;;;487.10;2380.80;;;;;;5094086;28;20115;-85
2022/06/29 03:09:04;;;;;;;11.65;8.43;;;487.00;2380.80;;;;;;5093877;28;20537;-86
2022/06/29 03:11:31;;;;;;;14.15;7.85;;;486.70;2380.80;;;;;;5094741;28;20097;-86
2022/06/29 03:13:57;;;;;;;9.73;8.18;;;486.60;2380.80;;;;;;5094795;28;20107;-87
2022/06/29 03:16:23;;;;;;;12.43;7.57;;;486.40;2380.80;;;;;;5095550;28;20115;-86
2022/06/29 03:18:49;;;;;;;13.60;7.95;;;486.60;2380.80;;;;;;5094421;28;20024;-87
2022/06/29 03:21:16;;;;;;;15.77;8.95;;;486.50;2380.80;;;;;;5094120;28;20119;-86
2022/06/29 03:23:43;;;;;;;13.75;9.38;;;;;;;;;;5093651;28;20099;-86
2022/06/29 03:26:09;;;;;;;15.32;9.10;;;461.60;2380.80;;;;;;5093544;28;20430;-86
2022/06/29 03:28:35;;;;;;;11.45;9.18;;;461.70;2380.80;;;;;;5093484;28;20031;-86
2022/06/29 03:31:00;;;;;;;15.07;8.27;;;461.70;2380.80;;;;;;5093386;28;20028;-86
2022/06/29 03:33:26;;;;;;;9.70;8.50;;;486.50;2380.80;;;;;;5093593;28;20024;-86
2022/06/29 03:35:52;;;;;;;11.18;8.32;;;486.50;2380.80;;;;;;5096582;28;20028;-86
2022/06/29 03:38:18;;;;;;;10.88;8.13;;;486.50;2380.80;;;;;;5113926;28;20036;-86
2022/06/29 03:40:44;;;;;;;10.77;7.63;;;486.60;2380.80;;;;;;5115120;28;20032;-86
2022/06/29 03:43:09;;;;;;;10.68;7.43;;;486.70;2380.80;;;;;;5114939;28;20023;-86
2022/06/29 03:45:35;;;;;;;12.57;7.30;;;486.70;2380.80;;;;;;5115544;28;20020;-87
2022/06/29 03:48:01;;;;;;;9.18;7.95;;;486.60;2380.80;;;;;;5115622;28;20012;-87
2022/06/29 03:50:27;;;;;;;9.55;7.35;;;486.40;2380.80;;;;;;5113323;28;20074;-88
2022/06/29 03:52:53;;;;;;;12.10;7.43;;;461.70;2380.80;;;;;;5094965;28;20464;-86
2022/06/29 03:55:19;;;;;;;11.30;7.47;;;486.40;2380.80;;;;;;5093111;28;20024;-86
2022/06/29 03:57:44;;;;;;;12.85;8.32;;;461.70;2380.80;;;;;;5093580;28;20384;-86
2022/06/29 04:00:12;;;;;;;14.80;8.52;;;486.40;2380.80;;;;;;5096869;28;20486;-86
2022/06/29 04:02:38;;;;;;;14.38;8.55;;;461.70;2380.80;;;;;;5096933;28;20030;-86
2022/06/29 04:05:05;;;;;;;11.05;7.30;;;486.40;2380.80;;;;;;5096914;28;20020;-86
2022/06/29 04:07:31;;;;;;;16.83;7.55;;;461.60;2380.80;;;;;;5096881;28;20074;-86
2022/06/29 04:10:00;;;;;;;10.93;7.13;;;486.40;2380.80;;;;;;5096882;28;20051;-86
2022/06/29 04:12:30;;;;;;;15.15;7.90;;;486.50;2380.80;;;;;;5096807;28;20028;-86
2022/06/29 04:14:57;;;;;;;15.48;8.40;;;486.60;2380.80;;;;;;5096889;28;20050;-86
2022/06/29 04:17:23;;;;;;;11.65;7.13;;;486.40;2380.80;;;;;;5097308;28;20529;-86
2022/06/29 04:19:51;;;;;;;18.65;7.10;;;486.70;2380.80;;;;;;5098780;28;20448;-86
2022/06/29 04:22:17;;;;;;;11.55;8.30;;;486.70;2380.80;;;;;;5113192;28;20383;-86
2022/06/29 04:24:43;;;;;;;12.10;7.95;;;487.20;2380.80;;;;;;5116053;28;20039;-84
2022/06/29 04:27:09;;;;;;;12.57;7.50;;;486.70;2380.80;;;;;;5104455;28;20024;-86
2022/06/29 04:29:35;;;;;;;13.52;8.20;;;486.80;2380.80;;;;;;5096152;28;20119;-85
2022/06/29 04:32:02;;;;;;;9.18;7.80;;;486.80;2380.80;;;;;;5096197;28;20032;-86
2022/06/29 04:34:28;;;;;;;9.40;7.75;;;487.10;2380.80;;;;;;5096157;28;20123;-86
2022/06/29 04:36:54;;;;;;;12.93;7.97;;;486.90;2380.80;;;;;;5096161;28;20518;-86
2022/06/29 04:39:20;;;;;;;15.30;8.00;;;486.80;2380.80;;;;;;5095940;28;20036;-86
2022/06/29 04:41:45;;;;;;;9.77;8.68;;;487.00;2380.80;;;;;;5095971;28;20082;-86
2022/06/29 04:44:11;;;;;;;12.38;7.60;;;487.20;2380.80;;;;;;5096080;28;20119;-84
2022/06/29 04:46:37;;;;;;;13.00;8.45;;;512.00;2380.80;;;;;;5097139;28;20021;-87
2022/06/29 04:49:04;;;;;;;11.60;7.65;;;487.30;2380.80;;;;;;5097057;28;20020;-86
2022/06/29 04:51:32;;;;;;;14.15;7.82;;;512.10;2380.80;;;;;;5096623;28;20174;-88
2022/06/29 04:53:59;;;;;;;11.63;7.30;;;512.00;2380.80;;;;;;5096072;28;20463;-88
2022/06/29 04:56:43;;;;;;;13.85;7.35;;;487.30;2380.80;;;;;;5096185;28;20028;-88
2022/06/29 04:59:09;;;;;;;14.43;7.85;;;487.30;2380.80;;;;;;5096287;28;20028;-89
2022/06/29 05:01:37;;;;;;;11.50;7.07;;;487.30;2380.80;;;;;;5096420;28;20020;-88
2022/06/29 05:04:03;;;;;;;13.18;7.07;;;487.20;2380.80;;;;;;5097099;28;20115;-89
2022/06/29 05:06:29;;;;;;;11.05;6.80;;;487.20;2380.80;;;;;;5096165;28;20110;-88
2022/06/29 05:09:15;;;;;;;14.43;6.47;;;512.00;2380.80;;;;;;5095996;28;20051;-88
2022/06/29 05:11:41;;;;;;;13.00;7.05;;;487.30;2380.80;;;;;;5095647;28;20484;-88
2022/06/29 05:14:09;;;;;;;11.82;7.40;;;512.00;2380.80;;;;;;5095842;28;20082;-88
2022/06/29 05:16:35;;;;;;;11.35;7.07;;;512.00;2380.80;;;;;;5095766;28;20032;-87
2022/06/29 05:19:02;;;;;;;12.10;7.22;;;486.50;2380.80;;;;;;5095375;28;20051;-88
2022/06/29 05:21:28;;;;;;;10.68;7.25;;;512.30;2380.80;;;;;;5095099;28;20028;-88
2022/06/29 05:23:54;;;;;;;14.25;6.53;;;512.40;2380.80;;;;;;5095531;28;20077;-88
2022/06/29 05:26:20;;;;;;;10.45;6.30;;;512.50;2380.80;;;;;;5094711;28;20024;-85
2022/06/29 05:28:47;;;;;;;8.38;6.50;;;512.80;2380.80;;;;;;5094462;28;20560;-84
2022/06/29 05:31:13;;;;;;;12.35;6.60;;;512.80;2380.80;;;;;;5094608;28;20028;-84
2022/06/29 05:33:39;;;;;;;10.88;6.63;;;537.60;2406.40;;;;;;5094461;28;20039;-85
2022/06/29 05:36:07;;;;;;;11.55;7.28;;;537.80;2406.40;;;;;;5095356;28;20476;-87
2022/06/29 05:38:34;;;;;;;9.10;6.85;;;537.80;2406.40;;;;;;5094389;28;20180;-87
2022/06/29 05:41:02;;;;;;;16.25;7.43;;;538.00;2406.40;;;;;;5094684;28;20035;-84
2022/06/29 05:43:29;;;;;;;9.02;6.50;;;538.00;2406.40;;;;;;5094474;28;20035;-86
2022/06/29 05:45:55;;;;;;;11.35;6.65;;;537.80;2406.40;;;;;;5094143;28;20110;-85
2022/06/29 05:48:21;;;;;;;12.93;8.55;;;538.10;2406.40;;;;;;5094253;28;20112;-86
2022/06/29 05:50:47;;;;;;;12.20;7.07;;;538.40;2406.40;;;;;;5094291;28;20094;-86
2022/06/29 05:53:14;;;;;;;10.27;6.00;;;563.20;2432.00;;;;;;5094430;28;20460;-86
2022/06/29 05:55:40;;;;;;;9.63;6.32;;;563.30;2432.00;;;;;;5094758;28;20374;-87
2022/06/29 05:58:07;;;;;;;9.85;6.07;;;563.20;2432.00;;;;;;5094572;28;20024;-86
2022/06/29 06:00:33;;;;;;;10.27;5.90;;;563.90;2432.00;;;;;;5094485;28;20050;-88
2022/06/29 06:02:59;;;;;;;7.97;6.03;;;563.70;2432.00;;;;;;5094658;28;20477;-86
2022/06/29 06:05:26;;;;;;;11.07;6.18;;;563.60;2432.00;;;;;;5094691;28;20383;-88
2022/06/29 06:07:52;;;;;;;8.38;6.35;;;563.90;2432.00;;;;;;5094700;28;20023;-88
2022/06/29 06:10:18;;;;;;;7.72;5.80;;;564.00;2432.00;;;;;;5094491;28;20076;-89
2022/06/29 06:12:45;;;;;;;7.93;6.72;;;564.10;2432.00;;;;;;5094573;28;20016;-89
2022/06/29 06:15:11;;;;;;;9.45;6.40;;;564.10;2432.00;;;;;;5094535;28;20016;-89
2022/06/29 06:17:38;;;;;;;10.05;7.05;;;588.80;2432.00;;;;;;5095040;28;20028;-88
2022/06/29 06:20:04;;;;;;;6.75;5.95;;;589.50;2432.00;;;;;;5094416;28;20035;-87
2022/06/29 06:22:36;;;;;;;8.75;6.15;;;588.90;2432.00;;;;;;5094271;28;20115;-89
2022/06/29 06:25:03;;;;;;;9.13;6.65;;;589.10;2432.00;;;;;;5094645;28;20024;-89
2022/06/29 06:27:29;;;;;;;8.05;5.90;;;589.20;2432.00;;;;;;5095044;28;20032;-88
2022/06/29 06:29:55;;;;;;;8.35;6.18;;;589.30;2432.00;;;;;;5094185;28;20056;-88
2022/06/29 06:32:21;;;;;;;7.97;6.05;;;589.30;2432.00;;;;;;5094804;28;20046;-89
2022/06/29 06:34:48;;;;;;;6.97;6.07;;;589.00;2432.00;;;;;;5094647;28;20030;-89
2022/06/29 06:37:14;;;;;;;9.60;5.53;;;589.00;2432.00;;;;;;5094785;28;20020;-90
2022/06/29 06:41:21;;;;;;;10.68;6.25;;;589.00;2432.00;;;;;;5074957;28;20107;-86
2022/06/29 06:42:27;;;;;;;10.15;5.68;;;589.00;2432.00;;;;;;5074693;28;20028;-89
2022/06/29 06:44:53;;;;;;;6.90;5.88;;;589.00;2432.00;;;;;;5073844;28;20044;-88
2022/06/29 06:47:20;;;;;;;6.30;5.70;;;589.20;2432.00;;;;;;5073605;28;20032;-89
2022/06/29 06:49:46;;;;;;;9.43;6.28;;;589.30;2432.00;;;;;;5073606;28;20472;-88
2022/06/29 06:52:13;;;;;;;9.25;5.88;;;589.60;2432.00;;;;;;5074166;28;20068;-89
2022/06/29 06:54:40;;;;;;;9.88;6.00;;;614.50;2432.00;;;;;;5082405;28;20013;-89
2022/06/29 06:57:06;;;;;;;7.47;6.05;;;614.60;2432.00;;;;;;5095987;28;20079;-88
2022/06/29 06:59:32;;;;;;;8.05;5.90;;;614.50;2432.00;;;;;;5081349;28;20028;-87
2022/06/29 07:01:58;;;;;;;7.75;5.82;;;614.70;2432.00;;;;;;5074149;28;20029;-88
2022/06/29 07:04:24;;;;;;;8.25;5.40;;;614.90;2432.00;;;;;;5073651;28;20023;-87
2022/06/29 07:06:50;;;;;;;14.13;6.18;;;615.10;2432.00;;;;;;5075038;28;20021;-86
2022/06/29 07:09:16;;;;;;;8.80;5.40;;;615.10;2432.00;;;;;;5078756;28;20074;-88
2022/06/29 07:11:44;;;;;;;5.85;4.80;;;614.90;2432.00;;;;;;5080836;28;20119;-88
2022/06/29 07:14:10;;;;;;;8.18;6.05;;;640.00;2432.00;;;;;;5075427;28;20027;-85
2022/06/29 07:16:36;;;;;;;9.48;5.25;;;640.10;2432.00;;;;;;5074331;28;20052;-87
2022/06/29 07:19:02;;;;;;;8.60;5.80;;;640.20;2432.00;;;;;;5075161;28;20444;-89
2022/06/29 07:21:29;;;;;;;8.43;5.82;;;640.40;2432.00;;;;;;5076123;28;20032;-89
2022/06/29 07:23:58;;;;;;;9.80;6.35;;;640.60;2432.00;;;;;;5075082;28;20433;-89
2022/06/29 07:26:28;;;;;;;7.35;5.57;;;640.70;2432.00;;;;;;5073958;28;20025;-87
2022/06/29 07:28:54;;;;;;;8.07;6.07;;;640.50;2432.00;;;;;;5074363;28;20078;-87
2022/06/29 07:31:20;;;;;;;6.43;5.40;;;640.40;2432.00;;;;;;5073536;28;20025;-88
2022/06/29 07:33:46;;;;;;;8.15;5.72;;;640.40;2432.00;;;;;;5075383;28;20031;-85
2022/06/29 07:36:12;;;;;;;13.70;9.20;;;640.50;2432.00;;;;;;5076665;28;20028;-85
2022/06/29 07:38:38;;;;;;;9.35;4.72;;;640.80;2432.00;;;;;;5081026;28;20107;-87
2022/06/29 07:41:04;;;;;;;7.95;5.20;;;640.90;2432.00;;;;;;5096653;28;20502;-87
2022/06/29 07:43:30;;;;;;;5.85;5.25;;;665.60;2432.00;;;;;;5097217;28;20028;-88
2022/06/29 07:45:57;;;;;;;8.80;5.80;;;665.80;2432.00;;;;;;5097745;28;20020;-87
2022/06/29 07:48:26;;;;;;;11.95;8.38;;;665.90;2432.00;;;;;;5080681;28;20059;-85
2022/06/29 07:50:53;;;;;;;8.20;5.43;;;666.20;2432.00;;;;;;5097661;28;20124;-87
2022/06/29 07:53:20;;;;;;;14.38;6.03;;;666.00;2432.00;;;;;;5098216;28;20051;-85
2022/06/29 07:55:46;;;;;;;12.10;6.43;;;666.20;2432.00;;;;;;5097940;28;20028;-87
2022/06/29 07:58:16;;;;;;;9.80;5.75;;;666.30;2432.00;;;;;;5097801;28;20081;-87
2022/06/29 08:00:42;;;;;;;10.23;5.82;;;666.40;2432.00;;;;;;5097693;28;20036;-86
2022/06/29 08:03:10;;;;;;;7.22;5.05;;;666.30;2432.00;;;;;;5101120;28;20020;-85
2022/06/29 08:05:39;;;;;;;10.65;6.55;;;666.30;2432.00;;;;;;5110404;28;20035;-86
2022/06/29 08:08:05;;;;;;;7.53;5.13;;;691.70;2432.00;;;;;;5103200;28;20036;-86
2022/06/29 08:10:32;;;;;;;6.20;4.88;;;692.00;2432.00;;;;;;5097547;28;20024;-86
2022/06/29 08:12:59;;;;;;;7.40;4.82;;;692.10;2432.00;;;;;;5097763;28;20030;-87
2022/06/29 08:15:26;;;;;;;6.78;4.95;;;692.10;2432.00;;;;;;5097703;28;20027;-86
2022/06/29 08:17:52;;;;;;;10.30;4.57;;;691.90;2432.00;;;;;;5098046;28;20031;-86
2022/06/29 08:20:19;;;;;;;8.20;4.40;;;716.80;2432.00;;;;;;5098898;28;20020;-84
2022/06/29 08:22:45;;;;;;;6.68;4.25;;;717.20;2432.00;;;;;;5085373;28;20028;-88
2022/06/29 08:25:12;;;;;;;9.43;4.93;;;717.70;2432.00;;;;;;5105817;28;20027;-86
2022/06/29 08:27:39;;;;;;;6.88;4.38;;;717.40;2432.00;;;;;;5111090;28;20024;-86
2022/06/29 08:30:06;;;;;;;11.98;5.82;;;717.50;2432.00;;;;;;5114001;28;20024;-86
2022/06/29 08:32:32;;;;;;;9.10;4.70;;;742.40;2432.00;;;;;;5099095;28;20119;-86
2022/06/29 08:35:00;;;;;;;8.40;4.10;;;742.60;2432.00;;;;;;5097165;28;20051;-86
2022/06/29 08:37:27;;;;;;;7.68;4.43;;;742.60;2432.00;;;;;;5096605;28;20429;-89
2022/06/29 08:39:53;;;;;;;9.50;4.35;;;742.50;2432.00;;;;;;5098128;28;20043;-87
2022/06/29 08:42:23;;;;;;;6.20;4.68;;;717.70;2432.00;;;;;;5097079;28;20506;-84
2022/06/29 08:44:49;;;;;;;9.30;3.95;;;742.50;2432.00;;;;;;5095987;28;20479;-87
2022/06/29 08:47:16;;;;;;;10.45;5.05;;;742.50;2380.80;;;;;;5097667;28;20100;-86
2022/06/29 08:49:44;;;;;;;7.60;5.00;;;742.70;2380.80;;;;;;5097434;28;20024;-85
2022/06/29 08:52:16;;;;;;;8.95;4.00;;;743.00;2355.20;;;;;;5097392;28;20043;-89
2022/06/29 08:54:53;;;;;;;8.20;4.20;;;743.30;2304.00;;;;;;5099231;28;20043;-90
2022/06/29 08:57:21;;;;;;;7.75;4.78;;;768.10;2252.80;;;;;;5099633;28;20043;-91
2022/06/29 08:59:50;;;;;;;8.95;6.65;;;768.40;2176.00;;;;;;5097779;28;20118;-91
2022/06/29 09:02:16;;;;;;;8.43;4.20;;;768.60;2176.00;;;;;;5097194;28;20028;-89
2022/06/29 09:04:42;;;;;;;6.45;4.10;;;768.80;2124.80;;;;;;5098596;28;20024;-87
2022/06/29 10:49:20;;;;;;;5.25;3.10;;;871.30;1689.60;;;;;;6183017;22;2338396;-88
2022/06/29 10:51:49;;;;;;;7.43;3.30;;;871.10;1689.60;;;;;;6259822;22;20003;-87
2022/06/29 10:54:32;;;;;;;7.05;3.70;;;845.20;1715.20;;;;;;6259977;22;20065;-87
2022/06/29 10:57:03;;;;;;;6.57;3.60;;;871.10;1689.60;;;;;;6259437;22;20061;-83
2022/06/29 10:59:38;;;;;;;5.78;3.28;;;871.10;1689.60;;;;;;6259902;22;20468;-88
2022/06/29 11:02:11;;;;;;;4.75;3.15;;;871.30;1689.60;;;;;;6259563;22;20401;-88
2022/06/29 11:04:38;;;;;;;5.10;3.25;;;871.20;1689.60;;;;;;6259929;22;20003;-87
2022/06/29 11:12:35;;;;;;;6.03;2.80;;;871.10;1638.40;;;;;;6312739;22;20006;-89
2022/06/29 11:18:28;;;;;;;;;;;;;;;;;;;;;
2022/06/29 11:21:03;;;;;;;11.65;3.78;;;871.00;1638.40;;;;;;6294858;22;20027;-86
2022/06/29 11:24:23;;;;;;;6.63;3.17;;;871.20;1664.00;;;;;;6261455;22;19999;-88
2022/06/29 11:27:14;;;;;;;;;;;;;;;;;;;;;
2022/06/29 11:30:35;;;;;;;8.15;5.35;;;896.60;1638.40;;;;;;6286539;22;20070;-90
2022/06/29 11:40:29;;;;;;;8.82;5.93;;;922.00;1561.60;;;;;;6128130;23;20057;-90
2022/06/29 11:46:45;;;;;;;6.60;3.28;;;921.90;1561.60;;;;;;6128133;23;20005;-87
2022/06/29 11:49:45;;;;;;;4.20;2.90;;;896.90;1587.20;;;;;;6000795;23;20583;-90
2022/06/29 13:19:04;;;;;;;5.32;2.85;;;947.40;1408.00;;;;;;6229895;22;20035;-86
2022/06/29 13:21:31;;;;;;;7.20;2.70;;;947.50;1408.00;;;;;;6252947;23;20361;-87
2022/06/29 13:24:00;;;;;;;7.30;2.78;;;947.30;1382.40;;;;;;6248035;23;20010;-86
2022/06/29 13:26:32;;;;;;;7.45;2.85;;;947.70;1408.00;;;;;;6246449;23;20325;-88
2022/06/29 13:29:06;;;;;;;6.22;2.70;;;947.40;1382.40;;;;;;6246278;23;20024;-89
2022/06/29 13:31:32;;;;;;;6.80;2.70;;;947.60;1382.40;;;;;;6246339;23;20005;-89
2022/06/29 13:34:12;;;;;;;5.43;2.85;;;948.00;1382.40;;;;;;6246563;23;20004;-91
2022/06/29 13:37:35;;;;;;;6.97;2.70;;;972.80;1408.00;;;;;;6246973;23;20062;-93
2022/06/29 14:04:55;;;;;;;;;;;;;;;;;;;;;
2022/06/29 14:24:27;;;;;;;8.63;3.58;;;972.90;1382.40;;;;;;6026316;23;20015;-86
2022/06/29 14:26:54;;;;;;;8.05;3.60;;;948.00;1356.80;;;;;;6050926;22;20022;-87
2022/06/29 14:29:20;;;;;;;6.68;3.05;;;948.10;1356.80;;;;;;6245787;23;20011;-82
2022/06/29 14:31:46;;;;;;;8.07;3.15;;;972.80;1433.60;;;;;;6245783;23;20004;-87
2022/06/29 14:34:12;;;;;;;7.43;3.33;;;948.10;1356.80;;;;;;6245686;23;20054;-88
2022/06/29 14:36:38;;;;;;;7.30;3.47;;;948.10;1356.80;;;;;;6245786;23;20335;-86
2022/06/29 14:39:04;;;;;;;4.70;3.00;;;947.60;1382.40;;;;;;6245844;23;20372;-89
2022/06/29 14:41:30;;;;;;;5.97;3.88;;;947.60;1382.40;;;;;;6245638;23;20008;-87
2022/06/29 14:43:56;;;;;;;5.85;4.35;;;947.60;1382.40;;;;;;6246334;23;20414;-86
2022/06/29 14:46:22;;;;;;;7.82;3.97;;;948.00;1382.40;;;;;;6245637;23;20000;-88
2022/06/29 14:48:48;;;;;;;5.35;4.20;;;947.90;1382.40;;;;;;6244859;23;20010;-85
2022/06/29 14:51:48;;;;;;;6.38;3.65;;;947.70;1408.00;;;;;;6245978;23;20036;-90
2022/06/29 14:54:14;;;;;;;8.10;4.20;;;947.60;1408.00;;;;;;6245927;23;20429;-87
2022/06/29 14:56:40;;;;;;;11.45;3.85;;;947.80;1382.40;;;;;;6246105;23;20026;-86
2022/06/29 14:59:09;;;;;;;10.00;4.68;;;947.90;1382.40;;;;;;6245877;23;20008;-88
2022/06/29 15:01:35;;;;;;;9.35;5.65;;;948.00;1408.00;;;;;;6245166;23;20330;-88
2022/06/29 15:04:01;;;;;;;10.82;5.13;;;948.10;1433.60;;;;;;6245721;23;20466;-86
2022/06/29 15:06:27;;;;;;;7.57;3.88;;;948.10;1382.40;;;;;;6246160;23;20027;-88
2022/06/29 15:08:53;;;;;;;6.70;3.20;;;948.00;1356.80;;;;;;6247105;23;20011;-88
2022/06/29 15:11:19;;;;;;;6.80;2.92;;;948.10;1408.00;;;;;;6248030;23;20008;-89
2022/06/29 15:13:45;;;;;;;6.93;3.33;;;948.10;1382.40;;;;;;6247802;23;20031;-86
2022/06/29 15:16:11;;;;;;;6.28;3.50;;;948.10;1408.00;;;;;;6247632;23;20095;-87
2022/06/29 15:18:38;;;;;;;8.27;3.35;;;948.00;1408.00;;;;;;6246769;23;20425;-86
2022/06/29 15:21:04;;;;;;;6.38;3.60;;;947.90;1433.60;;;;;;6247378;23;20062;-87
2022/06/29 15:23:30;;;;;;;7.85;3.40;;;948.00;1433.60;;;;;;6247591;23;20295;-88
2022/06/29 15:25:56;;;;;;;7.85;3.67;;;947.50;1433.60;;;;;;6246984;23;20011;-85
2022/06/29 15:28:22;;;;;;;9.25;4.13;;;947.40;1459.20;;;;;;6247035;23;20032;-85
2022/06/29 15:30:48;;;;;;;12.23;3.92;;;922.50;1459.20;;;;;;6247111;23;20008;-85
2022/06/29 15:38:45;;;;;;;9.20;3.97;;;922.10;1459.20;;;;;;6247107;23;20322;-84
2022/06/29 15:38:46;;;;;;;16.33;6.10;;;921.60;1484.80;;;;;;6248082;23;20055;-85
2022/06/29 15:41:12;;;;;;;10.40;4.75;;;921.70;1484.80;;;;;;6266736;22;20023;-81
2022/06/29 15:43:37;;;;;;;8.23;3.53;;;921.70;1484.80;;;;;;6255302;23;20083;-85
2022/06/29 15:46:03;;;;;;;8.45;4.13;;;921.70;1459.20;;;;;;6249015;23;20035;-82
2022/06/29 15:48:29;;;;;;;7.20;4.15;;;921.70;1484.80;;;;;;6248873;23;20004;-84
2022/06/29 15:50:55;;;;;;;8.35;5.40;;;896.90;1459.20;;;;;;6248375;23;19997;-81
2022/06/29 15:56:05;;;;;;;7.35;4.68;;;896.90;1459.20;;;;;;6249112;23;20011;-86
2022/06/29 15:58:31;;;;;;;7.45;4.25;;;896.60;1459.20;;;;;;6246218;23;19996;-85
2022/06/29 16:00:57;;;;;;;12.15;5.60;;;896.40;1459.20;;;;;;6246981;23;20044;-83
2022/06/29 16:03:22;;;;;;;9.02;5.30;;;896.40;1510.40;;;;;;6246516;23;20425;-87
2022/06/29 16:05:48;;;;;;;7.90;3.67;;;896.10;1484.80;;;;;;6246647;23;20445;-84
2022/06/29 16:08:14;;;;;;;8.95;5.72;;;896.10;1484.80;;;;;;6246736;23;20008;-83
2022/06/29 16:10:40;;;;;;;10.15;6.63;;;871.30;1510.40;;;;;;6246498;23;20010;-85
2022/06/29 16:13:06;;;;;;;9.25;6.22;;;896.00;1510.40;;;;;;6246569;23;20372;-82
2022/06/29 16:15:32;;;;;;;6.07;3.90;;;871.30;1510.40;;;;;;6246779;23;20004;-81
2022/06/29 16:17:59;;;;;;;8.65;4.75;;;871.20;1510.40;;;;;;6246326;23;20429;-80
2022/06/29 16:20:25;;;;;;;8.85;4.35;;;871.20;1536.00;;;;;;6251551;23;19996;-84
2022/06/29 16:22:50;;;;;;;7.53;4.43;;;871.10;1536.00;;;;;;6250131;23;20011;-85
2022/06/29 16:25:16;;;;;;;6.47;4.00;;;871.10;1536.00;;;;;;6246559;23;20011;-83
2022/06/29 16:27:42;;;;;;;6.32;3.92;;;871.00;1561.60;;;;;;6246754;23;20095;-83
2022/06/29 16:30:09;;;;;;;4.70;2.90;;;871.00;1561.60;;;;;;6246369;23;20004;-84
2022/06/29 16:32:35;;;;;;;10.13;3.20;;;870.90;1536.00;;;;;;6246732;23;20007;-86
2022/06/29 16:35:00;;;;;;;5.22;3.22;;;870.80;1561.60;;;;;;6246320;23;19996;-84
2022/06/29 16:37:27;;;;;;;5.78;3.10;;;870.80;1587.20;;;;;;6247650;23;20082;-86
2022/06/29 16:39:53;;;;;;;7.75;3.03;;;870.70;1561.60;;;;;;6246992;23;20087;-84